sensor_id;sensor_type;location;lat;lon;timestamp;P1;durP1;ratioP1;P2;durP2;ratioP2
60700;SDS011;46541;49.894;10.886;2022-12-08T00:00:06;21.33;;;12.40;;
60700;SDS011;46541;49.894;10.886;2022-12-08T00:02:33;23.52;;;14.30;;
60700;SDS011;46541;49.894;10.886;2022-12-08T00:05:00;22.10;;;12.32;;
60700;SDS011;46541;49.894;10.886;2022-12-08T00:07:45;30.77;;;16.70;;
60700;SDS011;46541;49.894;10.886;2022-12-08T00:10:31;23.57;;;13.90;;
60700;SDS011;46541;49.894;10.886;2022-12-08T00:13:15;24.98;;;13.73;;
60700;SDS011;46541;49.894;10.886;2022-12-08T00:15:42;19.90;;;12.25;;
60700;SDS011;46541;49.894;10.886;2022-12-08T00:18:08;22.70;;;13.43;;
60700;SDS011;46541;49.894;10.886;2022-12-08T00:20:35;33.60;;;15.88;;
60700;SDS011;46541;49.894;10.886;2022-12-08T00:23:02;29.98;;;15.80;;
60700;SDS011;46541;49.894;10.886;2022-12-08T00:25:29;22.40;;;13.13;;
60700;SDS011;46541;49.894;10.886;2022-12-08T00:27:56;26.35;;;14.18;;
60700;SDS011;46541;49.894;10.886;2022-12-08T00:30:23;24.85;;;14.63;;
60700;SDS011;46541;49.894;10.886;2022-12-08T00:32:50;25.23;;;14.43;;
60700;SDS011;46541;49.894;10.886;2022-12-08T00:35:17;24.17;;;14.57;;
60700;SDS011;46541;49.894;10.886;2022-12-08T00:37:44;28.30;;;14.70;;
60700;SDS011;46541;49.894;10.886;2022-12-08T00:40:11;28.20;;;13.73;;
60700;SDS011;46541;49.894;10.886;2022-12-08T00:42:38;26.92;;;15.80;;
60700;SDS011;46541;49.894;10.886;2022-12-08T00:45:05;26.55;;;14.13;;
60700;SDS011;46541;49.894;10.886;2022-12-08T00:47:32;26.23;;;15.00;;
60700;SDS011;46541;49.894;10.886;2022-12-08T00:49:59;26.52;;;14.10;;
60700;SDS011;46541;49.894;10.886;2022-12-08T00:52:25;24.38;;;13.32;;
60700;SDS011;46541;49.894;10.886;2022-12-08T00:54:52;23.02;;;13.32;;
60700;SDS011;46541;49.894;10.886;2022-12-08T00:57:19;21.17;;;13.95;;
60700;SDS011;46541;49.894;10.886;2022-12-08T00:59:46;23.10;;;13.02;;
60700;SDS011;46541;49.894;10.886;2022-12-08T01:02:12;21.08;;;13.30;;
60700;SDS011;46541;49.894;10.886;2022-12-08T01:04:40;19.90;;;12.70;;
60700;SDS011;46541;49.894;10.886;2022-12-08T01:07:07;19.88;;;11.95;;
60700;SDS011;46541;49.894;10.886;2022-12-08T01:09:34;24.00;;;13.48;;
60700;SDS011;46541;49.894;10.886;2022-12-08T01:12:01;23.50;;;13.50;;
60700;SDS011;46541;49.894;10.886;2022-12-08T01:14:27;20.73;;;12.68;;
60700;SDS011;46541;49.894;10.886;2022-12-08T01:16:54;20.75;;;12.30;;
60700;SDS011;46541;49.894;10.886;2022-12-08T01:19:21;22.00;;;13.10;;
60700;SDS011;46541;49.894;10.886;2022-12-08T01:21:48;23.75;;;13.50;;
60700;SDS011;46541;49.894;10.886;2022-12-08T01:24:15;23.55;;;13.30;;
60700;SDS011;46541;49.894;10.886;2022-12-08T01:26:45;20.80;;;13.10;;
60700;SDS011;46541;49.894;10.886;2022-12-08T01:29:13;28.23;;;14.35;;
60700;SDS011;46541;49.894;10.886;2022-12-08T01:31:40;28.20;;;14.55;;
60700;SDS011;46541;49.894;10.886;2022-12-08T01:34:07;21.45;;;13.10;;
60700;SDS011;46541;49.894;10.886;2022-12-08T01:36:35;20.92;;;12.85;;
60700;SDS011;46541;49.894;10.886;2022-12-08T01:39:04;28.63;;;14.38;;
60700;SDS011;46541;49.894;10.886;2022-12-08T01:41:33;25.85;;;13.98;;
60700;SDS011;46541;49.894;10.886;2022-12-08T01:46:34;26.88;;;14.35;;
60700;SDS011;46541;49.894;10.886;2022-12-08T01:49:15;24.33;;;13.57;;
60700;SDS011;46541;49.894;10.886;2022-12-08T01:51:48;29.20;;;15.30;;
60700;SDS011;46541;49.894;10.886;2022-12-08T01:54:16;23.48;;;13.98;;
60700;SDS011;46541;49.894;10.886;2022-12-08T01:56:49;25.30;;;14.82;;
60700;SDS011;46541;49.894;10.886;2022-12-08T01:59:23;27.65;;;14.90;;
60700;SDS011;46541;49.894;10.886;2022-12-08T02:01:51;23.02;;;14.20;;
60700;SDS011;46541;49.894;10.886;2022-12-08T02:04:18;23.83;;;14.35;;
60700;SDS011;46541;49.894;10.886;2022-12-08T02:06:45;26.00;;;15.15;;
60700;SDS011;46541;49.894;10.886;2022-12-08T02:09:13;24.73;;;14.32;;
60700;SDS011;46541;49.894;10.886;2022-12-08T02:11:40;25.67;;;14.75;;
60700;SDS011;46541;49.894;10.886;2022-12-08T02:14:07;29.38;;;16.27;;
60700;SDS011;46541;49.894;10.886;2022-12-08T02:16:38;24.63;;;14.85;;
60700;SDS011;46541;49.894;10.886;2022-12-08T02:24:36;28.63;;;16.88;;
60700;SDS011;46541;49.894;10.886;2022-12-08T02:44:00;26.42;;;15.15;;
60700;SDS011;46541;49.894;10.886;2022-12-08T02:46:39;27.67;;;15.75;;
60700;SDS011;46541;49.894;10.886;2022-12-08T02:49:19;26.45;;;15.98;;
60700;SDS011;46541;49.894;10.886;2022-12-08T02:51:46;27.95;;;15.98;;
60700;SDS011;46541;49.894;10.886;2022-12-08T02:54:13;25.73;;;14.93;;
60700;SDS011;46541;49.894;10.886;2022-12-08T03:02:34;30.70;;;16.80;;
60700;SDS011;46541;49.894;10.886;2022-12-08T03:05:26;29.77;;;16.45;;
60700;SDS011;46541;49.894;10.886;2022-12-08T03:08:02;28.88;;;16.05;;
60700;SDS011;46541;49.894;10.886;2022-12-08T03:10:43;32.17;;;16.58;;
60700;SDS011;46541;49.894;10.886;2022-12-08T03:13:22;25.23;;;14.85;;
60700;SDS011;46541;49.894;10.886;2022-12-08T03:15:54;25.25;;;14.82;;
60700;SDS011;46541;49.894;10.886;2022-12-08T03:18:22;29.30;;;16.17;;
60700;SDS011;46541;49.894;10.886;2022-12-08T03:20:53;24.40;;;15.18;;
60700;SDS011;46541;49.894;10.886;2022-12-08T03:23:21;32.45;;;16.00;;
60700;SDS011;46541;49.894;10.886;2022-12-08T03:26:08;27.90;;;15.93;;
60700;SDS011;46541;49.894;10.886;2022-12-08T03:28:40;29.38;;;15.63;;
60700;SDS011;46541;49.894;10.886;2022-12-08T03:31:09;26.60;;;15.35;;
60700;SDS011;46541;49.894;10.886;2022-12-08T03:33:40;24.58;;;14.45;;
60700;SDS011;46541;49.894;10.886;2022-12-08T03:36:09;29.23;;;15.23;;
60700;SDS011;46541;49.894;10.886;2022-12-08T03:38:39;26.33;;;14.18;;
60700;SDS011;46541;49.894;10.886;2022-12-08T03:41:07;28.40;;;14.68;;
60700;SDS011;46541;49.894;10.886;2022-12-08T03:46:18;27.42;;;14.38;;
60700;SDS011;46541;49.894;10.886;2022-12-08T03:48:46;24.98;;;14.23;;
60700;SDS011;46541;49.894;10.886;2022-12-08T03:51:13;26.83;;;14.88;;
60700;SDS011;46541;49.894;10.886;2022-12-08T03:53:41;25.70;;;15.15;;
60700;SDS011;46541;49.894;10.886;2022-12-08T03:56:14;29.20;;;15.73;;
60700;SDS011;46541;49.894;10.886;2022-12-08T03:58:49;25.55;;;15.70;;
60700;SDS011;46541;49.894;10.886;2022-12-08T04:01:16;27.08;;;15.35;;
60700;SDS011;46541;49.894;10.886;2022-12-08T04:03:43;31.65;;;17.90;;
60700;SDS011;46541;49.894;10.886;2022-12-08T04:06:10;26.67;;;16.45;;
60700;SDS011;46541;49.894;10.886;2022-12-08T04:08:37;26.05;;;14.63;;
60700;SDS011;46541;49.894;10.886;2022-12-08T04:11:04;25.92;;;15.43;;
60700;SDS011;46541;49.894;10.886;2022-12-08T04:13:35;27.25;;;15.15;;
60700;SDS011;46541;49.894;10.886;2022-12-08T04:16:03;26.77;;;15.13;;
60700;SDS011;46541;49.894;10.886;2022-12-08T04:18:31;24.50;;;14.75;;
60700;SDS011;46541;49.894;10.886;2022-12-08T04:20:58;25.15;;;14.13;;
60700;SDS011;46541;49.894;10.886;2022-12-08T04:23:25;23.25;;;13.70;;
60700;SDS011;46541;49.894;10.886;2022-12-08T04:25:52;24.52;;;14.27;;
60700;SDS011;46541;49.894;10.886;2022-12-08T04:28:19;29.88;;;14.40;;
60700;SDS011;46541;49.894;10.886;2022-12-08T04:30:47;23.25;;;14.50;;
60700;SDS011;46541;49.894;10.886;2022-12-08T04:33:15;24.05;;;15.50;;
60700;SDS011;46541;49.894;10.886;2022-12-08T04:35:42;25.30;;;14.95;;
60700;SDS011;46541;49.894;10.886;2022-12-08T04:38:09;28.90;;;15.63;;
60700;SDS011;46541;49.894;10.886;2022-12-08T04:40:35;30.52;;;15.68;;
60700;SDS011;46541;49.894;10.886;2022-12-08T04:43:02;26.60;;;14.07;;
60700;SDS011;46541;49.894;10.886;2022-12-08T04:45:29;23.38;;;13.70;;
60700;SDS011;46541;49.894;10.886;2022-12-08T04:47:57;26.23;;;14.30;;
60700;SDS011;46541;49.894;10.886;2022-12-08T04:50:25;25.73;;;15.25;;
60700;SDS011;46541;49.894;10.886;2022-12-08T04:52:52;26.25;;;14.57;;
60700;SDS011;46541;49.894;10.886;2022-12-08T04:55:19;26.20;;;15.10;;
60700;SDS011;46541;49.894;10.886;2022-12-08T04:57:46;26.75;;;13.85;;
60700;SDS011;46541;49.894;10.886;2022-12-08T05:00:14;22.00;;;13.25;;
60700;SDS011;46541;49.894;10.886;2022-12-08T05:02:41;28.80;;;14.75;;
60700;SDS011;46541;49.894;10.886;2022-12-08T05:05:08;21.25;;;13.00;;
60700;SDS011;46541;49.894;10.886;2022-12-08T05:07:35;26.23;;;14.57;;
60700;SDS011;46541;49.894;10.886;2022-12-08T05:10:03;32.10;;;13.88;;
60700;SDS011;46541;49.894;10.886;2022-12-08T05:12:31;29.08;;;14.75;;
60700;SDS011;46541;49.894;10.886;2022-12-08T05:14:58;24.92;;;14.25;;
60700;SDS011;46541;49.894;10.886;2022-12-08T05:17:25;24.95;;;13.52;;
60700;SDS011;46541;49.894;10.886;2022-12-08T05:19:51;28.52;;;14.43;;
60700;SDS011;46541;49.894;10.886;2022-12-08T05:22:18;25.15;;;13.65;;
60700;SDS011;46541;49.894;10.886;2022-12-08T05:24:45;25.95;;;12.48;;
60700;SDS011;46541;49.894;10.886;2022-12-08T05:27:13;27.15;;;14.13;;
60700;SDS011;46541;49.894;10.886;2022-12-08T05:29:40;27.52;;;13.52;;
60700;SDS011;46541;49.894;10.886;2022-12-08T05:32:07;26.88;;;13.95;;
60700;SDS011;46541;49.894;10.886;2022-12-08T05:34:34;24.58;;;13.73;;
60700;SDS011;46541;49.894;10.886;2022-12-08T05:37:01;23.88;;;13.27;;
60700;SDS011;46541;49.894;10.886;2022-12-08T05:39:27;29.75;;;15.82;;
60700;SDS011;46541;49.894;10.886;2022-12-08T05:41:54;29.13;;;14.40;;
60700;SDS011;46541;49.894;10.886;2022-12-08T05:44:21;22.33;;;12.40;;
60700;SDS011;46541;49.894;10.886;2022-12-08T05:46:48;23.85;;;13.00;;
60700;SDS011;46541;49.894;10.886;2022-12-08T05:49:14;23.25;;;13.48;;
60700;SDS011;46541;49.894;10.886;2022-12-08T05:51:41;26.80;;;14.57;;
60700;SDS011;46541;49.894;10.886;2022-12-08T05:54:08;24.35;;;13.55;;
60700;SDS011;46541;49.894;10.886;2022-12-08T05:56:35;29.17;;;15.55;;
60700;SDS011;46541;49.894;10.886;2022-12-08T05:59:04;28.50;;;15.10;;
60700;SDS011;46541;49.894;10.886;2022-12-08T06:01:32;26.35;;;14.55;;
60700;SDS011;46541;49.894;10.886;2022-12-08T06:03:59;30.77;;;15.93;;
60700;SDS011;46541;49.894;10.886;2022-12-08T06:06:27;27.95;;;14.65;;
60700;SDS011;46541;49.894;10.886;2022-12-08T06:08:54;29.17;;;15.45;;
60700;SDS011;46541;49.894;10.886;2022-12-08T06:11:25;26.13;;;14.25;;
60700;SDS011;46541;49.894;10.886;2022-12-08T06:13:54;29.90;;;15.98;;
60700;SDS011;46541;49.894;10.886;2022-12-08T06:16:22;27.95;;;14.40;;
60700;SDS011;46541;49.894;10.886;2022-12-08T06:18:51;28.33;;;15.25;;
60700;SDS011;46541;49.894;10.886;2022-12-08T06:21:18;32.78;;;15.98;;
60700;SDS011;46541;49.894;10.886;2022-12-08T06:23:50;33.80;;;18.83;;
60700;SDS011;46541;49.894;10.886;2022-12-08T06:26:18;31.52;;;17.45;;
60700;SDS011;46541;49.894;10.886;2022-12-08T06:28:45;31.95;;;16.10;;
60700;SDS011;46541;49.894;10.886;2022-12-08T06:31:13;31.10;;;17.58;;
60700;SDS011;46541;49.894;10.886;2022-12-08T06:33:45;32.17;;;16.58;;
60700;SDS011;46541;49.894;10.886;2022-12-08T06:36:13;31.77;;;18.58;;
60700;SDS011;46541;49.894;10.886;2022-12-08T06:38:41;34.92;;;18.05;;
60700;SDS011;46541;49.894;10.886;2022-12-08T06:41:09;30.42;;;15.52;;
60700;SDS011;46541;49.894;10.886;2022-12-08T06:43:36;29.80;;;16.80;;
60700;SDS011;46541;49.894;10.886;2022-12-08T06:46:04;29.73;;;16.42;;
60700;SDS011;46541;49.894;10.886;2022-12-08T06:48:32;27.33;;;15.43;;
60700;SDS011;46541;49.894;10.886;2022-12-08T06:51:09;30.35;;;15.50;;
60700;SDS011;46541;49.894;10.886;2022-12-08T06:53:38;28.58;;;15.88;;
60700;SDS011;46541;49.894;10.886;2022-12-08T06:56:06;31.20;;;14.95;;
60700;SDS011;46541;49.894;10.886;2022-12-08T06:58:34;30.30;;;16.35;;
60700;SDS011;46541;49.894;10.886;2022-12-08T07:01:08;27.45;;;14.82;;
60700;SDS011;46541;49.894;10.886;2022-12-08T07:03:38;26.08;;;14.45;;
60700;SDS011;46541;49.894;10.886;2022-12-08T07:06:05;27.85;;;15.63;;
60700;SDS011;46541;49.894;10.886;2022-12-08T07:08:33;23.88;;;13.85;;
60700;SDS011;46541;49.894;10.886;2022-12-08T07:11:05;23.55;;;14.02;;
60700;SDS011;46541;49.894;10.886;2022-12-08T07:13:33;28.30;;;13.98;;
60700;SDS011;46541;49.894;10.886;2022-12-08T07:16:03;25.95;;;13.98;;
60700;SDS011;46541;49.894;10.886;2022-12-08T07:18:34;22.20;;;12.23;;
60700;SDS011;46541;49.894;10.886;2022-12-08T07:21:05;21.83;;;12.93;;
60700;SDS011;46541;49.894;10.886;2022-12-08T07:23:45;31.27;;;14.45;;
60700;SDS011;46541;49.894;10.886;2022-12-08T07:26:19;24.20;;;12.75;;
60700;SDS011;46541;49.894;10.886;2022-12-08T07:28:46;18.30;;;11.43;;
60700;SDS011;46541;49.894;10.886;2022-12-08T07:31:16;24.02;;;12.80;;
60700;SDS011;46541;49.894;10.886;2022-12-08T07:33:51;21.17;;;11.55;;
60700;SDS011;46541;49.894;10.886;2022-12-08T07:36:19;18.90;;;12.23;;
60700;SDS011;46541;49.894;10.886;2022-12-08T07:38:46;17.65;;;10.80;;
60700;SDS011;46541;49.894;10.886;2022-12-08T07:41:15;24.70;;;12.88;;
60700;SDS011;46541;49.894;10.886;2022-12-08T07:43:43;24.50;;;13.40;;
60700;SDS011;46541;49.894;10.886;2022-12-08T07:46:14;24.60;;;14.10;;
60700;SDS011;46541;49.894;10.886;2022-12-08T07:48:43;24.08;;;13.07;;
60700;SDS011;46541;49.894;10.886;2022-12-08T07:51:10;25.23;;;14.43;;
60700;SDS011;46541;49.894;10.886;2022-12-08T07:53:39;27.42;;;15.73;;
60700;SDS011;46541;49.894;10.886;2022-12-08T07:56:10;26.20;;;14.88;;
60700;SDS011;46541;49.894;10.886;2022-12-08T07:58:38;26.63;;;14.48;;
60700;SDS011;46541;49.894;10.886;2022-12-08T08:01:05;23.67;;;13.63;;
60700;SDS011;46541;49.894;10.886;2022-12-08T08:03:43;24.63;;;14.77;;
60700;SDS011;46541;49.894;10.886;2022-12-08T08:06:10;26.25;;;15.30;;
60700;SDS011;46541;49.894;10.886;2022-12-08T08:08:40;26.73;;;16.02;;
60700;SDS011;46541;49.894;10.886;2022-12-08T08:11:07;26.33;;;14.95;;
60700;SDS011;46541;49.894;10.886;2022-12-08T08:13:45;29.60;;;17.13;;
60700;SDS011;46541;49.894;10.886;2022-12-08T08:16:12;31.33;;;17.08;;
60700;SDS011;46541;49.894;10.886;2022-12-08T08:18:39;30.25;;;18.58;;
60700;SDS011;46541;49.894;10.886;2022-12-08T08:21:06;25.75;;;16.20;;
60700;SDS011;46541;49.894;10.886;2022-12-08T08:23:53;30.33;;;16.95;;
60700;SDS011;46541;49.894;10.886;2022-12-08T08:26:20;28.17;;;15.48;;
60700;SDS011;46541;49.894;10.886;2022-12-08T08:28:46;27.05;;;15.02;;
60700;SDS011;46541;49.894;10.886;2022-12-08T08:31:15;33.90;;;18.58;;
60700;SDS011;46541;49.894;10.886;2022-12-08T08:33:42;31.33;;;15.73;;
60700;SDS011;46541;49.894;10.886;2022-12-08T08:36:09;26.00;;;16.52;;
60700;SDS011;46541;49.894;10.886;2022-12-08T08:38:36;23.85;;;14.63;;
60700;SDS011;46541;49.894;10.886;2022-12-08T08:41:08;27.02;;;15.00;;
60700;SDS011;46541;49.894;10.886;2022-12-08T08:43:36;25.25;;;15.10;;
60700;SDS011;46541;49.894;10.886;2022-12-08T08:46:04;28.27;;;15.60;;
60700;SDS011;46541;49.894;10.886;2022-12-08T08:48:31;30.42;;;14.55;;
60700;SDS011;46541;49.894;10.886;2022-12-08T08:51:05;29.48;;;15.13;;
60700;SDS011;46541;49.894;10.886;2022-12-08T08:53:36;27.25;;;13.80;;
60700;SDS011;46541;49.894;10.886;2022-12-08T08:56:12;30.13;;;15.75;;
60700;SDS011;46541;49.894;10.886;2022-12-08T08:58:40;24.63;;;15.35;;
60700;SDS011;46541;49.894;10.886;2022-12-08T09:01:07;25.27;;;14.43;;
60700;SDS011;46541;49.894;10.886;2022-12-08T09:03:34;31.63;;;16.05;;
60700;SDS011;46541;49.894;10.886;2022-12-08T09:06:01;25.40;;;14.80;;
60700;SDS011;46541;49.894;10.886;2022-12-08T09:08:28;24.70;;;13.95;;
60700;SDS011;46541;49.894;10.886;2022-12-08T09:10:55;27.42;;;14.88;;
60700;SDS011;46541;49.894;10.886;2022-12-08T09:13:22;32.95;;;17.10;;
60700;SDS011;46541;49.894;10.886;2022-12-08T09:15:48;23.50;;;13.23;;
60700;SDS011;46541;49.894;10.886;2022-12-08T09:18:15;28.70;;;16.13;;
60700;SDS011;46541;49.894;10.886;2022-12-08T09:20:42;29.42;;;15.30;;
60700;SDS011;46541;49.894;10.886;2022-12-08T09:23:09;26.80;;;15.98;;
60700;SDS011;46541;49.894;10.886;2022-12-08T09:25:36;24.83;;;13.65;;
60700;SDS011;46541;49.894;10.886;2022-12-08T09:28:02;31.63;;;15.90;;
60700;SDS011;46541;49.894;10.886;2022-12-08T09:30:29;22.08;;;13.00;;
60700;SDS011;46541;49.894;10.886;2022-12-08T09:32:56;25.60;;;13.38;;
60700;SDS011;46541;49.894;10.886;2022-12-08T09:35:23;28.20;;;13.88;;
60700;SDS011;46541;49.894;10.886;2022-12-08T09:37:49;21.27;;;12.70;;
60700;SDS011;46541;49.894;10.886;2022-12-08T09:40:17;27.90;;;14.20;;
60700;SDS011;46541;49.894;10.886;2022-12-08T09:45:16;28.08;;;15.35;;
60700;SDS011;46541;49.894;10.886;2022-12-08T09:47:46;28.23;;;16.42;;
60700;SDS011;46541;49.894;10.886;2022-12-08T09:56:00;23.95;;;12.48;;
60700;SDS011;46541;49.894;10.886;2022-12-08T09:58:26;18.88;;;10.98;;
60700;SDS011;46541;49.894;10.886;2022-12-08T10:00:54;17.30;;;10.68;;
60700;SDS011;46541;49.894;10.886;2022-12-08T10:03:23;25.08;;;14.18;;
60700;SDS011;46541;49.894;10.886;2022-12-08T10:06:03;25.92;;;13.25;;
60700;SDS011;46541;49.894;10.886;2022-12-08T10:15:01;25.00;;;12.38;;
60700;SDS011;46541;49.894;10.886;2022-12-08T10:17:36;28.48;;;15.65;;
60700;SDS011;46541;49.894;10.886;2022-12-08T10:22:47;25.70;;;14.55;;
60700;SDS011;46541;49.894;10.886;2022-12-08T10:30:37;24.90;;;14.05;;
60700;SDS011;46541;49.894;10.886;2022-12-08T10:33:04;24.40;;;13.40;;
60700;SDS011;46541;49.894;10.886;2022-12-08T10:35:41;23.70;;;13.48;;
60700;SDS011;46541;49.894;10.886;2022-12-08T10:38:21;23.08;;;14.32;;
60700;SDS011;46541;49.894;10.886;2022-12-08T10:43:31;21.33;;;12.23;;
60700;SDS011;46541;49.894;10.886;2022-12-08T10:46:09;16.50;;;9.98;;
60700;SDS011;46541;49.894;10.886;2022-12-08T10:48:56;24.55;;;13.95;;
60700;SDS011;46541;49.894;10.886;2022-12-08T10:51:37;16.23;;;10.55;;
60700;SDS011;46541;49.894;10.886;2022-12-08T10:54:23;24.80;;;13.27;;
60700;SDS011;46541;49.894;10.886;2022-12-08T10:56:59;25.35;;;12.98;;
60700;SDS011;46541;49.894;10.886;2022-12-08T10:59:26;22.80;;;12.20;;
60700;SDS011;46541;49.894;10.886;2022-12-08T11:01:53;20.27;;;12.02;;
60700;SDS011;46541;49.894;10.886;2022-12-08T11:04:22;19.25;;;10.93;;
60700;SDS011;46541;49.894;10.886;2022-12-08T11:06:59;13.85;;;9.23;;
60700;SDS011;46541;49.894;10.886;2022-12-08T11:12:12;23.63;;;13.85;;
60700;SDS011;46541;49.894;10.886;2022-12-08T11:19:45;18.20;;;10.02;;
60700;SDS011;46541;49.894;10.886;2022-12-08T11:22:39;16.48;;;9.85;;
60700;SDS011;46541;49.894;10.886;2022-12-08T11:27:44;17.63;;;10.27;;
60700;SDS011;46541;49.894;10.886;2022-12-08T11:32:46;18.45;;;8.85;;
60700;SDS011;46541;49.894;10.886;2022-12-08T11:35:27;15.90;;;8.57;;
60700;SDS011;46541;49.894;10.886;2022-12-08T11:38:02;14.25;;;8.45;;
60700;SDS011;46541;49.894;10.886;2022-12-08T11:40:47;12.48;;;7.85;;
60700;SDS011;46541;49.894;10.886;2022-12-08T11:46:12;13.27;;;7.88;;
60700;SDS011;46541;49.894;10.886;2022-12-08T11:48:47;20.60;;;12.07;;
60700;SDS011;46541;49.894;10.886;2022-12-08T11:51:24;15.77;;;10.35;;
60700;SDS011;46541;49.894;10.886;2022-12-08T11:54:12;17.98;;;10.05;;
60700;SDS011;46541;49.894;10.886;2022-12-08T11:57:00;12.02;;;7.78;;
60700;SDS011;46541;49.894;10.886;2022-12-08T11:59:31;14.55;;;8.75;;
60700;SDS011;46541;49.894;10.886;2022-12-08T12:02:03;14.32;;;9.40;;
60700;SDS011;46541;49.894;10.886;2022-12-08T12:04:35;16.15;;;10.00;;
60700;SDS011;46541;49.894;10.886;2022-12-08T12:18:21;13.35;;;8.23;;
60700;SDS011;46541;49.894;10.886;2022-12-08T12:21:16;14.18;;;7.85;;
60700;SDS011;46541;49.894;10.886;2022-12-08T12:23:50;15.85;;;8.63;;
60700;SDS011;46541;49.894;10.886;2022-12-08T12:26:25;18.55;;;10.00;;
60700;SDS011;46541;49.894;10.886;2022-12-08T12:28:59;13.50;;;8.27;;
60700;SDS011;46541;49.894;10.886;2022-12-08T12:34:10;15.68;;;8.63;;
60700;SDS011;46541;49.894;10.886;2022-12-08T12:36:46;15.25;;;9.18;;
60700;SDS011;46541;49.894;10.886;2022-12-08T12:39:30;15.95;;;9.43;;
60700;SDS011;46541;49.894;10.886;2022-12-08T12:42:00;16.02;;;9.95;;
60700;SDS011;46541;49.894;10.886;2022-12-08T12:46:56;12.95;;;8.55;;
60700;SDS011;46541;49.894;10.886;2022-12-08T12:54:41;12.90;;;8.15;;
60700;SDS011;46541;49.894;10.886;2022-12-08T12:57:19;15.18;;;9.75;;
60700;SDS011;46541;49.894;10.886;2022-12-08T13:02:31;17.73;;;10.45;;
60700;SDS011;46541;49.894;10.886;2022-12-08T13:05:05;16.67;;;9.13;;
60700;SDS011;46541;49.894;10.886;2022-12-08T13:07:59;15.48;;;8.60;;
60700;SDS011;46541;49.894;10.886;2022-12-08T13:10:57;15.48;;;9.05;;
60700;SDS011;46541;49.894;10.886;2022-12-08T13:13:25;13.82;;;8.57;;
60700;SDS011;46541;49.894;10.886;2022-12-08T13:15:53;13.18;;;9.10;;
60700;SDS011;46541;49.894;10.886;2022-12-08T13:18:34;14.30;;;9.55;;
60700;SDS011;46541;49.894;10.886;2022-12-08T13:26:07;16.80;;;10.00;;
60700;SDS011;46541;49.894;10.886;2022-12-08T13:29:03;15.35;;;8.57;;
60700;SDS011;46541;49.894;10.886;2022-12-08T13:40:24;18.38;;;11.68;;
60700;SDS011;46541;49.894;10.886;2022-12-08T13:43:03;16.42;;;9.98;;
60700;SDS011;46541;49.894;10.886;2022-12-08T13:45:35;16.55;;;9.20;;
60700;SDS011;46541;49.894;10.886;2022-12-08T13:48:49;15.80;;;10.05;;
60700;SDS011;46541;49.894;10.886;2022-12-08T13:51:40;17.58;;;10.85;;
60700;SDS011;46541;49.894;10.886;2022-12-08T13:54:31;18.35;;;9.00;;
60700;SDS011;46541;49.894;10.886;2022-12-08T13:57:26;14.15;;;9.50;;
60700;SDS011;46541;49.894;10.886;2022-12-08T13:59:59;16.48;;;10.20;;
60700;SDS011;46541;49.894;10.886;2022-12-08T14:02:31;16.55;;;9.93;;
60700;SDS011;46541;49.894;10.886;2022-12-08T14:05:12;16.63;;;9.13;;
60700;SDS011;46541;49.894;10.886;2022-12-08T14:07:45;15.15;;;9.48;;
60700;SDS011;46541;49.894;10.886;2022-12-08T14:10:15;17.83;;;10.07;;
60700;SDS011;46541;49.894;10.886;2022-12-08T14:12:44;17.65;;;9.95;;
60700;SDS011;46541;49.894;10.886;2022-12-08T14:15:13;16.75;;;10.02;;
60700;SDS011;46541;49.894;10.886;2022-12-08T14:17:45;16.85;;;10.10;;
60700;SDS011;46541;49.894;10.886;2022-12-08T14:20:27;14.75;;;9.30;;
60700;SDS011;46541;49.894;10.886;2022-12-08T14:22:55;14.57;;;9.02;;
60700;SDS011;46541;49.894;10.886;2022-12-08T14:25:27;16.80;;;10.20;;
60700;SDS011;46541;49.894;10.886;2022-12-08T14:27:58;16.02;;;10.27;;
60700;SDS011;46541;49.894;10.886;2022-12-08T14:30:27;20.52;;;10.52;;
60700;SDS011;46541;49.894;10.886;2022-12-08T14:32:59;18.75;;;10.25;;
60700;SDS011;46541;49.894;10.886;2022-12-08T14:35:34;15.15;;;8.75;;
60700;SDS011;46541;49.894;10.886;2022-12-08T14:38:13;18.13;;;10.70;;
60700;SDS011;46541;49.894;10.886;2022-12-08T14:40:41;18.00;;;9.65;;
60700;SDS011;46541;49.894;10.886;2022-12-08T14:43:29;15.20;;;9.18;;
60700;SDS011;46541;49.894;10.886;2022-12-08T14:46:01;15.30;;;9.45;;
60700;SDS011;46541;49.894;10.886;2022-12-08T14:51:06;14.23;;;9.80;;
60700;SDS011;46541;49.894;10.886;2022-12-08T14:56:15;18.42;;;10.68;;
60700;SDS011;46541;49.894;10.886;2022-12-08T14:58:43;16.58;;;10.65;;
60700;SDS011;46541;49.894;10.886;2022-12-08T15:01:14;17.30;;;10.35;;
60700;SDS011;46541;49.894;10.886;2022-12-08T15:03:46;15.63;;;10.18;;
60700;SDS011;46541;49.894;10.886;2022-12-08T15:06:17;19.13;;;11.05;;
60700;SDS011;46541;49.894;10.886;2022-12-08T15:09:31;24.65;;;11.40;;
60700;SDS011;46541;49.894;10.886;2022-12-08T15:12:02;20.08;;;11.75;;
60700;SDS011;46541;49.894;10.886;2022-12-08T15:14:32;16.23;;;10.00;;
60700;SDS011;46541;49.894;10.886;2022-12-08T15:17:01;21.60;;;12.70;;
60700;SDS011;46541;49.894;10.886;2022-12-08T15:19:32;28.50;;;17.23;;
60700;SDS011;46541;49.894;10.886;2022-12-08T15:22:13;17.77;;;10.25;;
60700;SDS011;46541;49.894;10.886;2022-12-08T15:29:46;24.95;;;12.45;;
60700;SDS011;46541;49.894;10.886;2022-12-08T15:32:15;19.63;;;10.73;;
60700;SDS011;46541;49.894;10.886;2022-12-08T15:34:44;20.60;;;13.25;;
60700;SDS011;46541;49.894;10.886;2022-12-08T15:39:44;17.75;;;9.75;;
60700;SDS011;46541;49.894;10.886;2022-12-08T15:42:11;19.05;;;10.10;;
60700;SDS011;46541;49.894;10.886;2022-12-08T15:44:39;18.42;;;10.38;;
60700;SDS011;46541;49.894;10.886;2022-12-08T15:47:13;17.45;;;10.60;;
60700;SDS011;46541;49.894;10.886;2022-12-08T15:49:45;17.70;;;9.55;;
60700;SDS011;46541;49.894;10.886;2022-12-08T15:52:13;17.17;;;9.05;;
60700;SDS011;46541;49.894;10.886;2022-12-08T15:54:42;15.52;;;10.73;;
60700;SDS011;46541;49.894;10.886;2022-12-08T15:57:15;19.80;;;11.85;;
60700;SDS011;46541;49.894;10.886;2022-12-08T16:00:11;18.17;;;11.23;;
60700;SDS011;46541;49.894;10.886;2022-12-08T16:03:21;14.73;;;9.47;;
60700;SDS011;46541;49.894;10.886;2022-12-08T16:06:11;18.77;;;9.73;;
60700;SDS011;46541;49.894;10.886;2022-12-08T16:09:02;18.67;;;11.25;;
60700;SDS011;46541;49.894;10.886;2022-12-08T16:11:38;20.50;;;10.75;;
60700;SDS011;46541;49.894;10.886;2022-12-08T16:14:34;21.27;;;11.65;;
60700;SDS011;46541;49.894;10.886;2022-12-08T16:17:21;21.10;;;11.35;;
60700;SDS011;46541;49.894;10.886;2022-12-08T16:19:48;18.02;;;11.18;;
60700;SDS011;46541;49.894;10.886;2022-12-08T16:22:22;18.08;;;11.10;;
60700;SDS011;46541;49.894;10.886;2022-12-08T16:25:11;22.83;;;11.38;;
60700;SDS011;46541;49.894;10.886;2022-12-08T16:27:46;18.30;;;11.20;;
60700;SDS011;46541;49.894;10.886;2022-12-08T16:30:35;20.13;;;11.05;;
60700;SDS011;46541;49.894;10.886;2022-12-08T16:33:02;21.02;;;12.38;;
60700;SDS011;46541;49.894;10.886;2022-12-08T16:35:29;26.60;;;13.32;;
60700;SDS011;46541;49.894;10.886;2022-12-08T16:37:56;20.00;;;12.13;;
60700;SDS011;46541;49.894;10.886;2022-12-08T16:40:23;24.00;;;12.82;;